Azkoitia, Spain
Current Conditions -  °F | °C
As of 9:30 AM on Saturday 29 Nov 2014 (Local Time) from LESO Reporting Station
Light Rain Light Rain  
Wind Chill: 57°   Ceiling: Unl
Heat Index: 57°   Visibility: 6mi
Dew Point: 54°   Wind: 2mph
Humidity: 88%   Direction: NA
Pressure: 29.5"   Gusts: NA
Location:  43.18°N, 2.31°W
Report Text: LESO 290830Z VRB02KT 9999 -RA NSC 14/12 Q0999
Loading
Personal Weather Stations






























Interactive Weather Map New forecast layout! Learn more

10-Day Weather Forecast

Advertisements
Track Severe Weather on mobile